createdAt,value
2019-04-01T00:02:26.594Z,17.93
2019-04-01T00:04:57.379Z,14.00
2019-04-01T00:07:28.097Z,11.90
2019-04-01T00:09:58.782Z,10.97
2019-04-01T00:12:29.508Z,10.90
2019-04-01T00:15:00.345Z,14.20
2019-04-01T00:17:31.082Z,16.03
2019-04-01T00:20:01.808Z,16.33
2019-04-01T00:22:32.621Z,16.40
2019-04-01T00:25:03.380Z,14.93
2019-04-01T00:27:34.079Z,16.53
2019-04-01T00:30:04.952Z,13.50
2019-04-01T00:32:35.679Z,17.10
2019-04-01T00:35:06.545Z,16.70
2019-04-01T00:37:37.466Z,18.10
2019-04-01T00:40:08.298Z,12.10
2019-04-01T00:42:57.939Z,16.10
2019-04-01T00:45:29.086Z,15.77
2019-04-01T00:47:59.781Z,15.53
2019-04-01T00:50:30.537Z,13.87
2019-04-01T00:53:01.285Z,15.07
2019-04-01T00:55:32.020Z,16.50
2019-04-01T00:58:02.789Z,17.83
2019-04-01T01:00:33.504Z,14.80
2019-04-01T01:03:04.209Z,19.27
2019-04-01T01:05:34.985Z,11.97
2019-04-01T01:08:05.931Z,13.10
2019-04-01T01:10:36.698Z,14.20
2019-04-01T01:13:07.414Z,14.60
2019-04-01T01:15:38.177Z,20.37
2019-04-01T01:18:08.856Z,13.90
2019-04-01T01:20:39.652Z,18.53
2019-04-01T01:23:10.335Z,18.53
2019-04-01T01:25:41.066Z,14.07
2019-04-01T01:28:11.801Z,16.70
2019-04-01T01:30:43.678Z,15.53
2019-04-01T01:33:14.476Z,12.80
2019-04-01T01:35:45.220Z,14.67
2019-04-01T01:38:15.986Z,15.37
2019-04-01T01:40:46.726Z,15.17
2019-04-01T01:43:17.459Z,16.43
2019-04-01T01:45:48.146Z,13.53
2019-04-01T01:48:18.952Z,19.47
2019-04-01T01:50:49.758Z,18.43
2019-04-01T01:53:20.494Z,11.93
2019-04-01T01:55:51.210Z,14.73
2019-04-01T01:58:22.129Z,17.23
2019-04-01T02:00:54.383Z,13.33
2019-04-01T02:03:25.056Z,16.27
2019-04-01T02:05:55.776Z,15.83
2019-04-01T02:08:26.575Z,15.10
2019-04-01T02:10:57.244Z,17.30
2019-04-01T02:13:28.014Z,17.37
2019-04-01T02:15:58.758Z,12.17
2019-04-01T02:18:29.477Z,22.43
2019-04-01T02:21:00.234Z,13.73
2019-04-01T02:23:30.992Z,14.03
2019-04-01T02:26:01.726Z,12.40
2019-04-01T02:28:32.413Z,17.70
2019-04-01T02:31:03.118Z,18.03
2019-04-01T02:33:33.873Z,18.80
2019-04-01T02:36:04.612Z,17.40
2019-04-01T02:38:35.328Z,18.17
2019-04-01T02:41:06.027Z,17.90
2019-04-01T02:43:36.754Z,20.60
2019-04-01T02:46:07.567Z,20.53
2019-04-01T02:48:38.473Z,15.63
2019-04-01T02:51:09.173Z,14.20
2019-04-01T02:53:39.896Z,20.33
2019-04-01T02:56:10.643Z,20.40
2019-04-01T02:58:41.394Z,21.40
2019-04-01T03:01:12.090Z,16.70
2019-04-01T03:03:42.865Z,16.63
2019-04-01T03:06:13.588Z,18.10
2019-04-01T03:08:44.363Z,17.13
2019-04-01T03:11:15.090Z,18.97
2019-04-01T03:13:45.841Z,13.00
2019-04-01T03:16:16.575Z,17.33
2019-04-01T03:18:48.227Z,21.30
2019-04-01T03:21:18.951Z,20.43
2019-04-01T03:23:49.692Z,19.77
2019-04-01T03:26:20.456Z,19.70
2019-04-01T03:28:51.204Z,19.77
2019-04-01T03:31:21.914Z,21.20
2019-04-01T03:33:52.627Z,23.90
2019-04-01T03:36:23.346Z,17.73
2019-04-01T03:38:54.097Z,14.27
2019-04-01T03:41:24.806Z,20.43
2019-04-01T03:43:55.573Z,19.30
2019-04-01T03:46:26.287Z,14.60
2019-04-01T03:48:57.023Z,18.03
2019-04-01T03:51:27.839Z,16.93
2019-04-01T03:53:59.526Z,15.73
2019-04-01T03:56:30.295Z,17.93
2019-04-01T03:59:01.084Z,16.90
2019-04-01T04:01:31.787Z,17.87
2019-04-01T04:04:05.341Z,25.27
2019-04-01T04:06:36.130Z,16.40
2019-04-01T04:09:07.173Z,16.77
2019-04-01T04:11:37.963Z,18.40
2019-04-01T04:14:08.666Z,20.80
2019-04-01T04:16:39.407Z,22.63
2019-04-01T04:19:10.119Z,23.23
2019-04-01T04:21:40.856Z,20.07
2019-04-01T04:24:11.574Z,18.47
2019-04-01T04:26:42.296Z,26.73
2019-04-01T04:29:13.051Z,19.37
2019-04-01T04:31:43.781Z,15.33
2019-04-01T04:34:14.486Z,23.57
2019-04-01T04:36:45.242Z,17.50
2019-04-01T04:39:15.928Z,20.10
2019-04-01T04:41:46.687Z,16.60
2019-04-01T04:44:17.431Z,17.67
2019-04-01T04:46:48.178Z,17.43
2019-04-01T04:49:37.959Z,20.40
2019-04-01T04:52:08.654Z,17.67
2019-04-01T04:54:39.370Z,17.63
2019-04-01T04:57:10.137Z,16.57
2019-04-01T04:59:40.856Z,26.93
2019-04-01T05:02:11.662Z,16.20
2019-04-01T05:04:42.410Z,25.80
2019-04-01T05:07:13.152Z,24.00
2019-04-01T05:09:43.833Z,20.47
2019-04-01T05:12:14.594Z,14.23
2019-04-01T05:14:45.300Z,20.63
2019-04-01T05:17:16.041Z,18.97
2019-04-01T05:19:46.743Z,13.47
2019-04-01T05:22:20.289Z,15.63
2019-04-01T05:24:52.417Z,12.70
2019-04-01T05:27:26.263Z,16.40
2019-04-01T05:29:57.661Z,18.80
2019-04-01T05:32:28.586Z,18.13
2019-04-01T05:35:01.516Z,23.83
2019-04-01T05:37:32.460Z,17.77
2019-04-01T05:40:04.185Z,17.93
2019-04-01T05:42:34.923Z,12.00
2019-04-01T05:45:07.319Z,21.60
2019-04-01T05:47:42.255Z,18.60
2019-04-01T05:50:13.172Z,14.20
2019-04-01T05:52:43.928Z,20.53
2019-04-01T05:55:14.654Z,20.40
2019-04-01T05:57:45.587Z,16.87
2019-04-01T06:00:39.752Z,17.67
2019-04-01T06:03:10.489Z,13.80
2019-04-01T06:05:41.146Z,14.67
2019-04-01T06:08:11.957Z,18.63
2019-04-01T06:10:42.678Z,14.43
2019-04-01T06:13:13.424Z,15.87
2019-04-01T06:15:44.151Z,12.43
2019-04-01T06:18:14.887Z,15.83
2019-04-01T06:20:45.573Z,10.80
2019-04-01T06:23:16.641Z,11.80
2019-04-01T06:25:47.645Z,11.67
2019-04-01T06:28:18.421Z,14.70
2019-04-01T06:30:49.121Z,12.80
2019-04-01T06:33:19.848Z,14.03
2019-04-01T06:35:50.569Z,12.63
2019-04-01T06:38:21.295Z,11.00
2019-04-01T06:40:52.003Z,10.23
2019-04-01T06:43:22.759Z,11.47
2019-04-01T06:45:53.465Z,11.10
2019-04-01T06:48:24.201Z,13.10
2019-04-01T06:50:54.928Z,14.03
2019-04-01T06:53:25.724Z,14.03
2019-04-01T06:55:56.392Z,14.17
2019-04-01T06:58:28.349Z,11.97
2019-04-01T07:00:59.303Z,9.57
2019-04-01T07:03:30.783Z,10.60
2019-04-01T07:06:02.237Z,9.73
2019-04-01T07:08:33.351Z,9.97
2019-04-01T07:11:04.159Z,11.67
2019-04-01T07:13:34.877Z,14.87
2019-04-01T07:16:15.220Z,12.57
2019-04-01T07:18:38.134Z,16.17
2019-04-01T07:21:08.874Z,10.83
2019-04-01T07:23:39.634Z,9.47
2019-04-01T07:26:10.460Z,11.87
2019-04-01T07:28:41.279Z,16.47
2019-04-01T07:31:11.991Z,16.50
2019-04-01T07:33:42.767Z,14.50
2019-04-01T07:36:13.502Z,12.20
2019-04-01T07:38:44.308Z,12.53
2019-04-01T07:41:15.055Z,13.17
2019-04-01T07:43:45.760Z,10.03
2019-04-01T07:46:16.584Z,8.60
2019-04-01T07:48:47.243Z,14.27
2019-04-01T07:51:18.020Z,12.30
2019-04-01T07:53:48.975Z,11.47
2019-04-01T07:56:19.642Z,13.40
2019-04-01T07:58:50.520Z,10.87
2019-04-01T08:01:21.304Z,16.20
2019-04-01T08:03:52.332Z,10.67
2019-04-01T08:06:23.097Z,13.70
2019-04-01T08:08:53.753Z,16.93
2019-04-01T08:11:24.549Z,13.67
2019-04-01T08:13:55.397Z,17.90
2019-04-01T08:16:26.182Z,12.07
2019-04-01T08:18:56.899Z,13.60
2019-04-01T08:21:27.635Z,13.03
2019-04-01T08:23:58.431Z,11.97
2019-04-01T08:26:29.118Z,15.57
2019-04-01T08:28:59.911Z,10.67
2019-04-01T08:31:30.672Z,13.60
2019-04-01T08:34:01.386Z,10.80
2019-04-01T08:36:32.262Z,10.43
2019-04-01T08:39:03.320Z,10.73
2019-04-01T08:41:34.059Z,12.77
2019-04-01T08:44:04.827Z,13.07
2019-04-01T08:46:35.612Z,12.77
2019-04-01T08:49:07.957Z,11.57
2019-04-01T08:51:38.891Z,12.30
2019-04-01T08:54:09.637Z,14.63
2019-04-01T08:56:40.374Z,13.60
2019-04-01T08:59:11.220Z,12.10
2019-04-01T09:01:41.946Z,14.03
2019-04-01T09:04:12.702Z,12.27
2019-04-01T09:06:43.429Z,15.30
2019-04-01T09:09:14.321Z,17.53
2019-04-01T09:11:45.011Z,16.77
2019-04-01T09:14:16.377Z,16.50
2019-04-01T09:16:47.235Z,14.83
2019-04-01T09:19:17.951Z,11.43
2019-04-01T09:21:48.644Z,16.40
2019-04-01T09:24:19.402Z,19.50
2019-04-01T09:26:50.139Z,14.43
2019-04-01T09:29:20.856Z,14.67
2019-04-01T09:31:51.592Z,15.00
2019-04-01T09:34:22.368Z,16.73
2019-04-01T09:36:53.088Z,14.37
2019-04-01T09:39:23.842Z,16.40
2019-04-01T09:41:54.597Z,19.23
2019-04-01T09:44:36.103Z,17.03
2019-04-01T09:46:57.670Z,17.23
2019-04-01T09:49:28.436Z,22.13
2019-04-01T09:51:59.122Z,15.83
2019-04-01T09:54:29.904Z,16.43
2019-04-01T09:57:00.665Z,17.50
2019-04-01T09:59:31.433Z,17.03
2019-04-01T10:02:02.182Z,14.23
2019-04-01T10:04:32.943Z,16.02
2019-04-01T10:07:03.690Z,15.68
2019-04-01T10:09:34.476Z,20.67
2019-04-01T10:12:05.172Z,14.93
2019-04-01T10:14:35.948Z,15.67
2019-04-01T10:17:06.683Z,18.23
2019-04-01T10:19:37.541Z,22.77
2019-04-01T10:22:08.278Z,19.37
2019-04-01T10:24:38.993Z,22.98
2019-04-01T10:27:09.733Z,20.15
2019-04-01T10:29:40.457Z,19.20
2019-04-01T10:32:11.235Z,22.57
2019-04-01T10:34:41.928Z,22.50
2019-04-01T10:37:12.697Z,23.27
2019-04-01T10:39:43.382Z,25.43
2019-04-01T10:42:14.068Z,22.00
2019-04-01T10:44:44.844Z,25.93
2019-04-01T10:47:15.726Z,18.70
2019-04-01T10:49:46.467Z,19.60
2019-04-01T10:52:17.246Z,18.93
2019-04-01T10:54:48.916Z,21.83
2019-04-01T10:57:19.735Z,21.47
2019-04-01T10:59:50.415Z,23.83
2019-04-01T11:02:21.198Z,24.23
2019-04-01T11:04:51.925Z,23.93
2019-04-01T11:07:22.634Z,20.90
2019-04-01T11:09:53.366Z,24.30
2019-04-01T11:12:24.861Z,26.97
2019-04-01T11:14:55.679Z,26.37
2019-04-01T11:17:26.465Z,23.73
2019-04-01T11:19:57.211Z,23.83
2019-04-01T11:22:27.967Z,21.67
2019-04-01T11:24:58.663Z,26.67
2019-04-01T11:27:29.439Z,23.63
2019-04-01T11:30:00.417Z,25.37
2019-04-01T11:32:31.310Z,23.03
2019-04-01T11:35:02.039Z,29.50
2019-04-01T11:37:32.824Z,25.73
2019-04-01T11:40:03.609Z,23.93
2019-04-01T11:42:34.423Z,25.10
2019-04-01T11:45:06.165Z,27.47
2019-04-01T11:47:36.918Z,26.20
2019-04-01T11:50:07.871Z,27.97
2019-04-01T11:52:38.689Z,31.13
2019-04-01T11:55:09.720Z,29.80
2019-04-01T11:57:41.075Z,25.30
2019-04-01T12:00:15.385Z,24.87
2019-04-01T12:02:46.320Z,25.73
2019-04-01T12:05:17.414Z,23.90
2019-04-01T12:07:48.161Z,26.67
2019-04-01T12:10:18.867Z,25.53
2019-04-01T12:12:50.221Z,23.37
2019-04-01T12:15:20.922Z,26.40
2019-04-01T12:17:51.615Z,27.30
2019-04-01T12:20:22.302Z,27.73
2019-04-01T12:22:53.038Z,25.07
2019-04-01T12:25:23.805Z,24.43
2019-04-01T12:27:54.511Z,23.00
2019-04-01T12:30:25.207Z,21.87
2019-04-01T12:32:55.943Z,24.80
2019-04-01T12:35:26.612Z,24.80
2019-04-01T12:37:57.366Z,25.63
2019-04-01T12:40:28.084Z,27.00
2019-04-01T12:42:58.809Z,24.37
2019-04-01T12:45:29.485Z,23.00
2019-04-01T12:48:00.886Z,28.07
2019-04-01T12:50:31.588Z,28.27
2019-04-01T12:53:02.316Z,26.57
2019-04-01T12:55:33.003Z,23.60
2019-04-01T12:58:03.747Z,24.83
2019-04-01T13:00:34.465Z,22.90
2019-04-01T13:03:05.183Z,19.65
2019-04-01T13:05:35.906Z,25.40
2019-04-01T13:08:06.644Z,22.32
2019-04-01T13:10:37.329Z,21.65
2019-04-01T13:13:08.105Z,21.12
2019-04-01T13:15:38.771Z,24.85
2019-04-01T13:18:09.492Z,22.95
2019-04-01T13:20:40.244Z,21.90
2019-04-01T13:23:10.960Z,25.27
2019-04-01T13:25:41.697Z,26.50
2019-04-01T13:28:12.494Z,27.65
2019-04-01T13:30:43.309Z,21.15
2019-04-01T13:33:14.056Z,22.32
2019-04-01T13:35:46.613Z,21.75
2019-04-01T13:38:17.360Z,24.02
2019-04-01T13:40:48.135Z,24.05
2019-04-01T13:43:18.902Z,26.25
2019-04-01T13:45:50.302Z,27.27
2019-04-01T13:48:21.344Z,28.13
2019-04-01T13:50:52.118Z,26.37
2019-04-01T13:53:22.817Z,26.67
2019-04-01T13:55:53.593Z,27.90
2019-04-01T13:58:24.379Z,22.57
2019-04-01T14:00:55.116Z,26.07
2019-04-01T14:03:25.862Z,33.70
2019-04-01T14:05:56.588Z,25.37
2019-04-01T14:08:27.297Z,23.38
2019-04-01T14:10:58.085Z,24.32
2019-04-01T14:13:28.767Z,21.93
2019-04-01T14:15:59.533Z,23.32
2019-04-01T14:18:30.327Z,24.23
2019-04-01T14:21:14.908Z,26.68
2019-04-01T14:23:33.422Z,21.42
2019-04-01T14:26:04.159Z,25.37
2019-04-01T14:28:34.885Z,21.57
2019-04-01T14:31:06.067Z,21.35
2019-04-01T14:33:38.440Z,24.45
2019-04-01T14:36:09.156Z,22.85
2019-04-01T14:38:39.930Z,26.27
2019-04-01T14:41:10.821Z,24.33
2019-04-01T14:43:41.533Z,23.63
2019-04-01T14:46:12.239Z,24.87
2019-04-01T14:48:43.022Z,25.32
2019-04-01T14:51:13.761Z,24.83
2019-04-01T14:53:44.519Z,27.10
2019-04-01T14:56:15.234Z,24.97
2019-04-01T14:58:46.000Z,23.83
2019-04-01T15:01:16.726Z,22.17
2019-04-01T15:03:47.523Z,22.83
2019-04-01T15:06:18.238Z,29.73
2019-04-01T15:08:48.975Z,23.63
2019-04-01T15:11:19.731Z,25.57
2019-04-01T15:13:50.462Z,25.07
2019-04-01T15:16:21.195Z,25.87
2019-04-01T15:18:51.930Z,26.57
2019-04-01T15:21:22.656Z,25.33
2019-04-01T15:23:53.565Z,29.90
2019-04-01T15:26:24.263Z,25.33
2019-04-01T15:28:55.035Z,26.57
2019-04-01T15:31:25.789Z,22.63
2019-04-01T15:33:56.459Z,26.90
2019-04-01T15:36:27.322Z,28.43
2019-04-01T15:38:58.010Z,25.00
2019-04-01T15:41:28.766Z,26.27
2019-04-01T15:43:59.503Z,26.57
2019-04-01T15:46:30.239Z,24.77
2019-04-01T15:49:00.965Z,26.43
2019-04-01T15:51:31.719Z,28.90
2019-04-01T15:54:05.401Z,22.87
2019-04-01T15:56:36.288Z,24.97
2019-04-01T15:59:07.075Z,25.80
2019-04-01T16:01:37.859Z,26.20
2019-04-01T16:04:08.693Z,24.77
2019-04-01T16:06:39.660Z,27.47
2019-04-01T16:09:10.416Z,29.30
2019-04-01T16:11:41.142Z,26.33
2019-04-01T16:14:11.761Z,25.83
2019-04-01T16:16:42.506Z,28.17
2019-04-01T16:19:13.234Z,28.23
2019-04-01T16:21:44.008Z,30.93
2019-04-01T16:24:15.349Z,25.70
2019-04-01T16:26:47.040Z,30.60
2019-04-01T16:29:17.786Z,27.10
2019-04-01T16:31:48.543Z,27.77
2019-04-01T16:34:19.259Z,26.90
2019-04-01T16:36:50.018Z,27.27
2019-04-01T16:39:20.762Z,26.77
2019-04-01T16:41:51.478Z,25.30
2019-04-01T16:44:22.234Z,27.03
2019-04-01T16:46:53.041Z,28.57
2019-04-01T16:49:23.787Z,29.27
2019-04-01T16:51:54.573Z,25.93
2019-04-01T16:54:25.329Z,25.57
2019-04-01T16:56:56.046Z,29.77
2019-04-01T16:59:28.074Z,30.57
2019-04-01T17:01:59.028Z,29.53
2019-04-01T17:04:29.729Z,28.23
2019-04-01T17:07:00.494Z,29.73
2019-04-01T17:09:31.218Z,27.43
2019-04-01T17:12:01.916Z,28.20
2019-04-01T17:14:32.640Z,26.40
2019-04-01T17:17:03.446Z,28.57
2019-04-01T17:19:34.063Z,32.03
2019-04-01T17:22:04.830Z,28.93
2019-04-01T17:24:35.535Z,24.90
2019-04-01T17:27:11.413Z,27.43
2019-04-01T17:29:45.603Z,29.23
2019-04-01T17:32:16.436Z,25.40
2019-04-01T17:34:47.133Z,28.50
2019-04-01T17:37:17.871Z,24.80
2019-04-01T17:39:48.586Z,25.90
2019-04-01T17:42:19.291Z,26.90
2019-04-01T17:44:54.118Z,24.93
2019-04-01T17:47:43.919Z,26.53
2019-04-01T17:50:14.626Z,27.17
2019-04-01T17:52:45.383Z,25.37
2019-04-01T17:55:17.285Z,24.83
2019-04-01T17:57:48.364Z,25.43
2019-04-01T18:00:22.525Z,27.37
2019-04-01T18:02:53.282Z,29.67
2019-04-01T18:05:23.976Z,21.93
2019-04-01T18:07:54.741Z,24.37
2019-04-01T18:10:25.479Z,23.60
2019-04-01T18:12:56.473Z,26.60
2019-04-01T18:15:27.210Z,27.83
2019-04-01T18:17:57.969Z,24.97
2019-04-01T18:20:28.663Z,27.60
2019-04-01T18:22:59.459Z,28.30
2019-04-01T18:25:30.174Z,27.93
2019-04-01T18:28:00.902Z,25.17
2019-04-01T18:30:31.675Z,25.23
2019-04-01T18:33:02.417Z,22.77
2019-04-01T18:35:33.160Z,24.53
2019-04-01T18:38:03.918Z,28.13
2019-04-01T18:40:35.850Z,24.40
2019-04-01T18:43:06.769Z,31.83
2019-04-01T18:45:37.496Z,23.50
2019-04-01T18:48:08.182Z,23.50
2019-04-01T18:50:38.941Z,24.03
2019-04-01T18:53:09.643Z,25.40
2019-04-01T18:55:41.531Z,26.67
2019-04-01T18:58:12.298Z,27.10
2019-04-01T19:00:43.033Z,26.90
2019-04-01T19:03:13.803Z,24.00
2019-04-01T19:05:47.136Z,27.33
2019-04-01T19:08:17.952Z,22.57
2019-04-01T19:11:01.478Z,28.60
2019-04-01T19:13:20.946Z,24.10
2019-04-01T19:15:52.517Z,27.43
2019-04-01T19:18:24.099Z,24.00
2019-04-01T19:20:56.804Z,24.33
2019-04-01T19:23:27.121Z,27.73
2019-04-01T19:25:57.887Z,22.03
2019-04-01T19:28:28.564Z,23.63
2019-04-01T19:30:59.349Z,25.50
2019-04-01T19:33:30.055Z,22.63
2019-04-01T19:36:01.369Z,25.30
2019-04-01T19:38:32.416Z,22.60
2019-04-01T19:41:03.126Z,24.70
2019-04-01T19:43:33.802Z,24.43
2019-04-01T19:46:04.577Z,28.37
2019-04-01T19:48:35.273Z,24.00
2019-04-01T19:51:06.009Z,33.50
2019-04-01T19:53:36.726Z,25.30
2019-04-01T19:56:07.432Z,22.47
2019-04-01T19:58:38.120Z,24.73
2019-04-01T20:01:08.845Z,27.10
2019-04-01T20:03:39.551Z,26.37
2019-04-01T20:06:10.308Z,24.77
2019-04-01T20:08:40.963Z,26.03
2019-04-01T20:11:11.719Z,22.00
2019-04-01T20:13:42.875Z,23.23
2019-04-01T20:16:13.732Z,19.97
2019-04-01T20:18:44.460Z,23.13
2019-04-01T20:21:15.218Z,27.23
2019-04-01T20:23:45.881Z,20.57
2019-04-01T20:26:17.389Z,26.60
2019-04-01T20:28:48.984Z,19.90
2019-04-01T20:31:19.762Z,24.77
2019-04-01T20:33:50.517Z,19.60
2019-04-01T20:36:28.549Z,20.47
2019-04-01T20:38:53.649Z,19.30
2019-04-01T20:41:24.416Z,22.60
2019-04-01T20:43:55.093Z,22.70
2019-04-01T20:46:25.819Z,22.77
2019-04-01T20:48:56.515Z,20.00
2019-04-01T20:51:27.250Z,21.80
2019-04-01T20:53:57.837Z,19.10
2019-04-01T20:56:28.553Z,22.37
2019-04-01T20:58:59.249Z,21.13
2019-04-01T21:01:29.857Z,20.03
2019-04-01T21:04:00.551Z,22.03
2019-04-01T21:06:31.278Z,23.77
2019-04-01T21:09:01.884Z,20.23
2019-04-01T21:11:32.481Z,25.57
2019-04-01T21:14:03.272Z,25.70
2019-04-01T21:16:36.413Z,18.97
2019-04-01T21:19:07.060Z,22.03
2019-04-01T21:21:38.391Z,23.00
2019-04-01T21:24:10.123Z,20.00
2019-04-01T21:26:40.820Z,20.57
2019-04-01T21:29:11.512Z,19.73
2019-04-01T21:31:42.203Z,19.93
2019-04-01T21:34:12.939Z,20.43
2019-04-01T21:36:43.624Z,18.53
2019-04-01T21:39:14.293Z,22.47
2019-04-01T21:41:44.974Z,19.23
2019-04-01T21:44:15.694Z,20.03
2019-04-01T21:46:47.402Z,25.47
2019-04-01T21:49:18.167Z,19.60
2019-04-01T21:51:48.864Z,23.23
2019-04-01T21:54:19.739Z,19.57
2019-04-01T21:56:51.950Z,23.73
2019-04-01T21:59:22.804Z,19.63
2019-04-01T22:01:53.484Z,24.30
2019-04-01T22:04:24.184Z,22.67
2019-04-01T22:06:54.940Z,21.50
2019-04-01T22:09:25.677Z,17.67
2019-04-01T22:11:57.178Z,22.47
2019-04-01T22:14:28.920Z,20.90
2019-04-01T22:16:59.585Z,17.70
2019-04-01T22:19:30.361Z,17.63
2019-04-01T22:22:01.468Z,19.13
2019-04-01T22:24:33.063Z,19.17
2019-04-01T22:27:04.111Z,18.23
2019-04-01T22:29:34.877Z,18.77
2019-04-01T22:32:05.603Z,21.27
2019-04-01T22:34:37.295Z,22.00
2019-04-01T22:37:08.684Z,21.07
2019-04-01T22:39:39.412Z,18.37
2019-04-01T22:42:10.140Z,19.53
2019-04-01T22:44:40.894Z,20.83
2019-04-01T22:47:11.641Z,21.73
2019-04-01T22:49:42.377Z,20.07
2019-04-01T22:52:13.083Z,24.80
2019-04-01T22:54:43.819Z,24.03
2019-04-01T22:57:14.556Z,25.07
2019-04-01T22:59:45.344Z,21.03
2019-04-01T23:02:16.063Z,20.17
2019-04-01T23:04:46.824Z,16.53
2019-04-01T23:07:17.601Z,19.50
2019-04-01T23:09:48.317Z,15.73
2019-04-01T23:12:19.063Z,22.30
2019-04-01T23:14:50.100Z,21.67
2019-04-01T23:17:20.798Z,21.80
2019-04-01T23:19:51.514Z,23.97
2019-04-01T23:22:22.269Z,25.90
2019-04-01T23:24:52.934Z,21.63
2019-04-01T23:27:24.309Z,29.37
2019-04-01T23:29:55.380Z,22.57
2019-04-01T23:32:27.293Z,24.23
2019-04-01T23:34:58.108Z,27.13
2019-04-01T23:37:28.847Z,26.90
2019-04-01T23:39:59.582Z,29.40
2019-04-01T23:42:30.338Z,25.17
2019-04-01T23:45:01.018Z,24.27
2019-04-01T23:47:31.710Z,27.57
2019-04-01T23:50:02.417Z,25.73
2019-04-01T23:52:33.210Z,25.43
2019-04-01T23:55:05.109Z,30.27
2019-04-01T23:57:35.856Z,28.83
